Time;durP1;ratioP1;P1;durP2;ratioP2;P2;SDS_P1;SDS_P2;PMS_P1;PMS_P2;Temp;Humidity;BMP_temperature;BMP_pressure;BME280_temperature;BME280_humidity;BME280_pressure;Samples;Min_cycle;Max_cycle;Signal;HPM_P1;HPM_P2
2023/05/13 00:01:25;;;;;;;18.75;14.23;;;9.60;99.90;;;-144.05;84.03;56944.41;5000334;28;20044;-80
2023/05/13 00:03:51;;;;;;;20.05;13.63;;;9.60;99.90;;;-144.05;83.88;56957.16;5018467;28;20123;-80
2023/05/13 00:06:17;;;;;;;19.20;13.32;;;9.70;99.90;;;-144.05;83.84;56929.53;5018275;28;20115;-81
2023/05/13 00:08:43;;;;;;;19.27;13.93;;;9.60;99.90;;;-144.05;83.98;56935.91;5018526;28;20034;-79
2023/05/13 00:11:09;;;;;;;21.35;13.70;;;9.50;99.90;;;-144.05;84.31;56925.28;5019347;28;20056;-79
2023/05/13 00:13:36;;;;;;;21.63;14.50;;;9.50;99.90;;;-144.05;84.94;56959.28;5018293;28;20462;-79
2023/05/13 00:16:03;;;;;;;27.90;16.90;;;9.60;99.90;;;-144.05;84.74;56935.91;5019168;28;20097;-79
2023/05/13 00:18:29;;;;;;;18.98;14.60;;;9.60;99.90;;;-144.05;84.61;56959.28;5000788;28;20084;-80
2023/05/13 00:20:55;;;;;;;17.52;14.15;;;9.60;99.90;;;-144.05;84.51;56940.16;5018154;28;20038;-79
2023/05/13 00:23:22;;;;;;;18.05;14.48;;;9.70;99.90;;;-144.05;84.51;56938.03;4999650;28;20500;-81
2023/05/13 00:25:47;;;;;;;19.15;13.88;;;9.70;99.90;;;-144.05;84.68;56929.53;5017706;28;20022;-80
2023/05/13 00:28:14;;;;;;;15.95;14.15;;;9.60;99.90;;;-144.05;84.61;56933.78;5018383;28;20042;-82
2023/05/13 00:30:44;;;;;;;22.35;13.35;;;9.60;99.90;;;-144.05;84.57;56946.53;5000025;28;20038;-80
2023/05/13 00:33:10;;;;;;;21.80;15.57;;;9.60;99.90;;;-144.05;84.79;56935.91;5017598;28;20030;-80
2023/05/13 00:35:36;;;;;;;17.05;13.93;;;9.60;99.90;;;-144.05;84.79;56921.06;5016732;28;20030;-79
2023/05/13 00:38:02;;;;;;;24.15;14.18;;;9.60;99.90;;;-144.05;84.57;56940.16;5017002;28;20034;-79
2023/05/13 00:40:29;;;;;;;19.35;13.50;;;9.60;99.90;;;-144.05;84.82;56942.28;5016948;28;20064;-82
2023/05/13 00:42:55;;;;;;;16.80;12.75;;;9.50;99.90;;;-144.05;84.63;56938.03;5017939;28;20022;-81
2023/05/13 00:45:21;;;;;;;17.17;13.95;;;9.50;99.90;;;-144.05;84.93;56942.28;5000678;28;20092;-81
2023/05/13 00:47:48;;;;;;;20.23;14.52;;;9.40;99.90;;;-144.05;85.19;56963.53;5018924;28;20363;-80
2023/05/13 00:50:14;;;;;;;21.90;15.25;;;9.50;99.90;;;-144.05;85.24;56935.91;5020558;28;20517;-80
2023/05/13 00:52:42;;;;;;;19.20;14.60;;;9.50;99.90;;;-144.05;85.38;56933.78;5012494;28;20033;-80
2023/05/13 00:55:10;;;;;;;21.08;14.80;;;9.50;99.90;;;-144.05;85.43;56935.91;5018599;28;20030;-82
2023/05/13 00:57:39;;;;;;;19.05;13.90;;;9.50;99.90;;;-144.05;85.20;56955.03;5000969;28;20474;-80
2023/05/13 01:00:06;;;;;;;16.20;13.18;;;9.40;99.90;;;-144.05;85.32;56935.91;5017818;28;20052;-81
2023/05/13 01:03:02;;;;;;;20.80;13.52;;;9.30;99.90;;;-144.05;85.31;56938.03;5020165;28;20049;-82
2023/05/13 01:06:07;;;;;;;19.27;13.00;;;9.20;99.90;;;-144.05;84.94;56931.66;5021333;28;20021;-78
2023/05/13 01:08:57;;;;;;;17.08;12.82;;;9.10;99.90;;;-144.05;85.31;56931.66;5020681;28;20478;-78
2023/05/13 01:11:40;;;;;;;15.48;12.50;;;9.00;99.90;;;-144.05;85.24;56931.66;5019580;28;20048;-80
2023/05/13 01:14:35;;;;;;;16.50;13.18;;;8.90;99.90;;;-144.05;85.54;56925.28;5020859;28;20034;-78
2023/05/13 01:17:19;;;;;;;17.95;14.15;;;8.90;99.90;;;-144.05;85.27;56957.16;5019195;28;20025;-81
2023/05/13 01:19:54;;;;;;;22.05;15.93;;;9.00;99.90;;;-144.05;86.15;56938.03;5020497;28;20045;-79
2023/05/13 01:22:20;;;;;;;20.20;16.05;;;9.00;99.90;;;-144.05;85.91;56929.53;5003072;28;20040;-79
2023/05/13 01:24:46;;;;;;;20.95;16.15;;;9.00;99.90;;;-144.05;85.64;56944.41;5003143;28;20053;-80
2023/05/13 01:27:13;;;;;;;20.58;14.77;;;9.00;99.90;;;-144.05;85.74;56935.91;5024290;28;20030;-80
2023/05/13 01:29:39;;;;;;;19.45;13.77;;;9.00;99.90;;;-144.05;85.67;56935.91;5005260;28;20030;-78
2023/05/13 01:32:10;;;;;;;16.60;13.07;;;9.00;99.90;;;-144.05;85.47;56944.41;5021731;28;20033;-80
2023/05/13 01:34:39;;;;;;;17.48;13.38;;;8.90;99.90;;;-144.05;85.36;56976.28;5022497;28;20021;-79
2023/05/13 01:37:06;;;;;;;16.70;12.57;;;8.80;99.90;;;-144.05;85.17;56925.28;5004344;28;20030;-79
2023/05/13 01:39:34;;;;;;;17.65;14.00;;;8.70;99.90;;;-144.05;85.32;56959.28;5021647;28;20022;-79
2023/05/13 01:42:00;;;;;;;19.25;12.55;;;8.70;99.90;;;-144.05;85.16;56933.78;5022277;28;20038;-78
2023/05/13 01:44:26;;;;;;;15.40;12.80;;;8.60;99.90;;;-144.05;85.46;56959.28;5003747;28;20033;-82
2023/05/13 01:46:52;;;;;;;16.83;14.63;;;8.60;99.90;;;-144.05;85.86;56942.28;5021733;28;20427;-79
2023/05/13 01:49:18;;;;;;;17.92;14.77;;;8.70;99.90;;;-144.05;85.50;56959.28;5004241;28;20026;-78
2023/05/13 01:51:44;;;;;;;20.02;14.63;;;8.60;99.90;;;-144.05;85.54;56948.66;5019972;28;20021;-79
2023/05/13 01:54:10;;;;;;;18.45;14.90;;;8.60;99.90;;;-144.05;85.67;56955.03;5027504;28;20099;-80
2023/05/13 01:56:37;;;;;;;17.13;15.32;;;8.60;99.90;;;-144.05;85.99;56931.66;5036391;28;20105;-80
2023/05/13 01:59:03;;;;;;;16.27;14.40;;;8.70;99.90;;;-144.05;85.72;56963.53;5028953;28;20017;-81
2023/05/13 02:01:29;;;;;;;23.58;16.77;;;8.70;99.90;;;-144.05;85.96;56961.41;5009160;28;20157;-79
2023/05/13 02:03:58;;;;;;;19.20;14.55;;;8.70;99.90;;;-144.05;85.84;56980.53;5024562;28;20073;-79
2023/05/13 02:06:26;;;;;;;20.13;14.88;;;8.70;99.90;;;-144.05;85.75;56969.91;5003353;28;20511;-79
2023/05/13 02:08:52;;;;;;;21.27;16.55;;;8.70;99.90;;;-144.05;85.70;56961.41;5003058;28;20081;-81
2023/05/13 02:11:18;;;;;;;22.63;15.40;;;8.60;99.90;;;-144.05;85.73;56959.28;5019237;28;20037;-82
2023/05/13 02:13:44;;;;;;;20.27;14.27;;;8.60;99.90;;;-144.05;85.71;56963.53;5019361;28;20034;-81
2023/05/13 02:16:16;;;;;;;20.23;14.52;;;8.60;99.90;;;-144.05;85.86;56940.16;5019703;28;20025;-80
2023/05/13 02:18:42;;;;;;;20.95;16.42;;;8.50;99.90;;;-144.05;86.37;56946.53;5019616;28;20397;-80
2023/05/13 02:21:08;;;;;;;20.08;15.15;;;8.60;99.90;;;-144.05;85.71;56957.16;5018678;28;20115;-80
2023/05/13 02:23:34;;;;;;;17.92;14.88;;;8.50;99.90;;;-144.05;85.80;56948.66;5003523;28;20049;-81
2023/05/13 02:25:59;;;;;;;18.77;15.07;;;8.50;99.90;;;-144.05;85.64;56948.66;5021099;28;20048;-82
2023/05/13 02:28:25;;;;;;;23.30;15.18;;;8.50;99.90;;;-144.05;85.96;56957.16;5037874;28;20085;-81
2023/05/13 02:30:51;;;;;;;20.17;14.60;;;8.40;99.90;;;-144.05;85.87;56944.41;5037740;28;20052;-81
2023/05/13 02:33:17;;;;;;;21.45;14.82;;;8.40;99.90;;;-144.05;85.94;56961.41;5036639;28;20026;-83
2023/05/13 02:35:43;;;;;;;22.13;16.35;;;8.40;99.90;;;-144.05;86.21;56976.28;5036717;28;20018;-81
2023/05/13 02:38:10;;;;;;;19.08;14.75;;;8.40;99.90;;;-144.05;85.94;56957.16;5037153;28;20050;-80
2023/05/13 02:40:36;;;;;;;22.55;15.48;;;8.40;99.90;;;-144.05;85.87;56940.16;5020207;28;20041;-80
2023/05/13 02:43:02;;;;;;;18.27;14.65;;;8.40;99.90;;;-144.05;86.21;56946.53;5018342;28;20037;-80
2023/05/13 02:45:28;;;;;;;20.90;16.50;;;8.40;99.90;;;-144.05;86.07;56978.41;5018562;28;20030;-81
2023/05/13 02:47:55;;;;;;;20.55;15.98;;;8.40;99.90;;;-144.05;85.84;56952.91;5001351;28;20102;-82
2023/05/13 02:50:20;;;;;;;23.92;16.00;;;8.40;99.90;;;-144.05;85.70;56948.66;5018790;28;20081;-80
2023/05/13 02:52:46;;;;;;;24.77;16.25;;;8.40;99.90;;;-144.05;86.25;56923.19;5019435;28;20061;-81
2023/05/13 02:55:12;;;;;;;18.67;14.77;;;8.50;99.90;;;-144.05;86.00;56967.78;5018127;28;20405;-80
2023/05/13 02:57:38;;;;;;;19.10;15.40;;;8.50;99.90;;;-144.05;86.12;56961.41;5018650;28;20030;-81
2023/05/13 03:00:06;;;;;;;19.13;14.57;;;8.40;99.90;;;-144.05;86.12;56972.03;5017934;28;20072;-79
2023/05/13 03:02:33;;;;;;;18.90;14.38;;;8.40;99.90;;;-144.05;86.00;56974.16;5000413;28;20026;-80
2023/05/13 03:04:59;;;;;;;17.73;13.35;;;8.40;99.90;;;-144.05;85.67;56950.78;5000437;28;20540;-82
2023/05/13 03:07:25;;;;;;;17.33;14.10;;;8.30;99.90;;;-144.05;85.73;56948.66;5000423;28;20030;-80
2023/05/13 03:09:51;;;;;;;21.42;13.93;;;8.20;99.90;;;-144.05;85.81;56946.53;4981548;28;1074170;-80
2023/05/13 03:12:17;;;;;;;18.50;13.15;;;8.10;99.90;;;-144.05;86.00;56933.78;5020263;28;20052;-80
2023/05/13 03:14:43;;;;;;;20.13;14.88;;;8.10;99.90;;;-144.05;86.11;56938.03;5024146;28;20024;-81
2023/05/13 03:17:10;;;;;;;16.70;14.27;;;8.10;99.90;;;-144.05;85.87;56921.06;5011744;28;20053;-82
2023/05/13 03:19:37;;;;;;;16.77;12.40;;;8.10;99.90;;;-144.05;85.74;56938.03;5011711;28;20025;-79
2023/05/13 03:22:05;;;;;;;17.08;10.95;;;7.90;99.90;;;-144.05;85.79;56961.41;5030185;28;20037;-81
2023/05/13 03:24:31;;;;;;;18.25;12.80;;;7.80;99.90;;;-144.05;85.86;56963.53;5022828;28;20029;-80
2023/05/13 03:26:58;;;;;;;19.63;13.25;;;7.80;99.90;;;-144.05;85.66;56950.78;5023125;28;20040;-80
2023/05/13 03:29:24;;;;;;;16.23;12.95;;;7.70;99.90;;;-144.05;85.55;56946.53;5028794;28;20030;-81
2023/05/13 03:31:51;;;;;;;20.77;14.93;;;7.70;99.90;;;-144.05;85.87;56950.78;5010996;28;20046;-79
2023/05/13 03:34:17;;;;;;;21.60;15.65;;;7.80;99.90;;;-144.05;85.87;56961.41;5018448;28;20032;-81
2023/05/13 03:36:42;;;;;;;18.65;14.60;;;7.80;99.90;;;-144.05;86.15;56976.28;5019117;28;20041;-81
2023/05/13 03:39:09;;;;;;;24.33;16.52;;;7.70;99.90;;;-144.05;86.07;56948.66;5000374;28;20053;-82
2023/05/13 03:41:35;;;;;;;18.75;14.88;;;7.70;99.90;;;-144.05;86.08;56967.78;5018957;28;20030;-80
2023/05/13 03:44:01;;;;;;;20.60;14.57;;;7.80;99.90;;;-144.05;85.97;56942.28;5017888;28;20041;-80
2023/05/13 03:46:27;;;;;;;19.27;14.35;;;7.80;99.90;;;-144.05;86.02;56974.16;5018653;28;20026;-81
2023/05/13 03:48:57;;;;;;;23.23;14.77;;;7.80;99.90;;;-144.05;85.84;56963.53;5018041;28;20575;-80
2023/05/13 03:51:23;;;;;;;18.80;14.25;;;7.80;99.90;;;-144.05;85.80;56946.53;5020465;28;20037;-81
2023/05/13 03:53:49;;;;;;;22.88;15.77;;;7.80;99.90;;;-144.05;85.85;56948.66;5023560;28;20037;-82
2023/05/13 03:56:15;;;;;;;19.90;16.02;;;7.80;99.90;;;-144.05;85.88;56974.16;5020398;28;20030;-81
2023/05/13 03:58:41;;;;;;;24.48;15.65;;;7.80;99.90;;;-144.05;85.70;56952.91;5001784;28;20120;-81
2023/05/13 04:01:07;;;;;;;18.15;14.68;;;7.90;99.90;;;-144.05;85.85;56952.91;5001748;28;20045;-80
2023/05/13 04:03:34;;;;;;;17.80;14.25;;;7.80;99.90;;;-144.05;86.05;56948.66;5019637;28;20466;-79
2023/05/13 04:06:00;;;;;;;17.65;14.40;;;7.80;99.90;;;-144.05;85.88;56965.66;5027353;28;20088;-79
2023/05/13 04:08:26;;;;;;;20.70;15.02;;;7.80;99.90;;;-144.05;85.94;56931.66;5016525;28;20029;-82
2023/05/13 04:10:53;;;;;;;22.48;15.48;;;7.80;99.90;;;-144.05;86.09;56925.28;5013078;28;20096;-79
2023/05/13 04:13:19;;;;;;;19.88;14.90;;;7.70;99.90;;;-144.05;85.96;56935.91;5013412;28;20452;-77
2023/05/13 04:15:45;;;;;;;17.83;14.60;;;7.80;99.90;;;-144.05;85.95;56967.78;5014623;28;20034;-78
2023/05/13 04:18:10;;;;;;;20.98;14.68;;;7.80;99.90;;;-144.05;86.04;56959.28;5016734;28;20041;-79
2023/05/13 04:20:39;;;;;;;20.58;16.05;;;7.80;99.90;;;-144.05;86.31;56933.78;5013591;28;20508;-78
2023/05/13 04:23:06;;;;;;;17.90;14.38;;;7.90;99.90;;;-144.05;86.05;56933.78;5014782;28;20052;-78
2023/05/13 04:25:35;;;;;;;18.80;15.20;;;7.90;99.90;;;-144.05;86.05;56938.03;4997035;28;20030;-78
2023/05/13 04:28:00;;;;;;;21.17;15.23;;;7.90;99.90;;;-144.05;86.02;56952.91;5015455;28;20038;-79
2023/05/13 04:30:26;;;;;;;24.23;16.08;;;7.90;99.90;;;-144.05;86.30;56965.66;5016471;28;20030;-78
2023/05/13 04:32:52;;;;;;;22.25;15.73;;;8.00;99.90;;;-144.05;86.31;56961.41;5016872;28;20565;-79
2023/05/13 04:35:18;;;;;;;27.38;17.85;;;8.00;99.90;;;-144.05;86.18;56965.66;5017363;28;20033;-79
2023/05/13 04:37:44;;;;;;;22.13;16.90;;;8.10;99.90;;;-144.05;85.94;56957.16;5016329;28;20049;-81
2023/05/13 04:40:11;;;;;;;25.10;17.63;;;8.10;99.90;;;-144.05;85.97;56952.91;5017310;28;20045;-79
2023/05/13 04:42:37;;;;;;;21.85;16.10;;;8.10;99.90;;;-144.05;86.30;56925.28;5017311;28;20026;-79
2023/05/13 04:45:03;;;;;;;22.50;16.30;;;8.20;99.90;;;-144.05;86.16;56914.69;4998611;28;20104;-80
2023/05/13 04:47:29;;;;;;;21.85;16.55;;;8.30;99.90;;;-144.05;86.09;56957.16;4998602;28;20478;-79
2023/05/13 04:49:55;;;;;;;21.88;16.17;;;8.30;99.90;;;-144.05;86.28;56948.66;5016182;28;20037;-79
2023/05/13 04:52:21;;;;;;;22.17;16.08;;;8.40;99.90;;;-144.05;86.11;56948.66;5017385;28;20030;-79
2023/05/13 04:54:47;;;;;;;23.10;16.98;;;8.40;99.90;;;-144.05;86.36;56935.91;5017690;28;20081;-80
2023/05/13 04:57:12;;;;;;;23.30;17.67;;;8.50;99.90;;;-144.05;86.30;56942.28;5016764;28;20073;-79
2023/05/13 04:59:38;;;;;;;20.80;17.70;;;8.50;99.90;;;-144.05;86.21;56959.28;5000263;28;20034;-79
2023/05/13 05:02:04;;;;;;;19.35;15.98;;;8.70;99.90;;;-144.05;86.34;56946.53;5017856;28;20037;-80
2023/05/13 05:04:30;;;;;;;24.65;18.98;;;8.70;99.90;;;-144.05;86.30;56895.56;5000361;28;20036;-82
2023/05/13 05:06:56;;;;;;;22.83;18.77;;;8.90;99.90;;;-144.05;86.19;56933.78;5017923;28;20022;-81
2023/05/13 05:09:22;;;;;;;20.08;15.02;;;9.10;99.90;;;-144.05;86.39;56929.53;5017690;28;20021;-80
2023/05/13 05:11:49;;;;;;;20.27;16.17;;;9.30;99.90;;;-144.05;85.86;56946.53;4999315;28;20405;-80
2023/05/13 05:14:15;;;;;;;16.85;15.05;;;9.30;99.90;;;-144.05;85.92;56921.06;5017272;28;20026;-80
2023/05/13 05:16:41;;;;;;;19.55;14.18;;;9.40;99.90;;;-144.05;86.03;56935.91;5016553;28;20060;-81
2023/05/13 05:19:07;;;;;;;19.55;14.27;;;9.40;99.90;;;-144.05;86.14;56929.53;5017072;28;20038;-82
2023/05/13 05:21:33;;;;;;;18.30;14.45;;;9.40;99.90;;;-144.05;85.79;56950.78;4998763;28;20034;-81
2023/05/13 05:24:00;;;;;;;17.67;14.60;;;9.30;99.90;;;-144.05;85.82;56950.78;4998212;28;20034;-82
2023/05/13 05:26:26;;;;;;;18.67;13.43;;;9.30;99.90;;;-144.05;85.72;56914.69;5016467;28;20505;-81
2023/05/13 05:28:52;;;;;;;19.40;14.75;;;9.30;99.90;;;-144.05;85.80;56935.91;5015977;28;20041;-79
2023/05/13 05:31:18;;;;;;;17.92;14.38;;;9.30;99.90;;;-144.05;85.97;56940.16;5016636;28;20029;-78
2023/05/13 05:33:44;;;;;;;17.70;14.57;;;9.40;99.90;;;-144.05;85.93;56963.53;4999068;28;20120;-79
2023/05/13 05:36:10;;;;;;;20.02;15.82;;;9.50;99.90;;;-144.05;85.87;56912.56;5015929;28;20105;-79
2023/05/13 05:38:35;;;;;;;17.00;13.68;;;9.70;99.90;;;-144.05;85.46;56918.94;4998461;28;20038;-80
2023/05/13 05:41:01;;;;;;;19.02;14.85;;;9.80;99.90;;;-144.05;84.46;56914.69;5017485;28;20509;-79
2023/05/13 05:43:27;;;;;;;17.75;13.05;;;9.80;99.90;;;-144.05;84.22;56914.69;5017148;28;20540;-82
2023/05/13 05:45:53;;;;;;;18.67;13.60;;;9.80;99.90;;;-144.05;84.25;56940.16;5017742;28;20038;-82
2023/05/13 05:48:19;;;;;;;19.00;14.07;;;9.80;99.90;;;-144.05;84.22;56950.78;5016899;28;20037;-80
2023/05/13 05:50:45;;;;;;;16.27;14.07;;;9.70;99.90;;;-144.05;83.87;56955.03;5022403;28;20072;-78
2023/05/13 05:53:11;;;;;;;27.10;15.30;;;9.70;99.90;;;-144.05;83.77;56925.28;5022347;28;20034;-83
2023/05/13 05:55:36;;;;;;;15.95;13.60;;;9.70;99.90;;;-144.05;83.77;56931.66;5022044;28;20030;-80
2023/05/13 05:58:04;;;;;;;17.27;14.13;;;9.60;99.90;;;-144.05;84.18;56933.78;5021276;28;20065;-81
2023/05/13 06:00:31;;;;;;;15.73;12.50;;;9.70;99.90;;;-144.05;83.85;56946.53;5020927;28;20034;-80
2023/05/13 06:02:57;;;;;;;20.13;15.10;;;9.70;99.90;;;-144.05;84.12;56925.28;5021376;28;20026;-78
2023/05/13 06:05:23;;;;;;;19.48;14.73;;;9.80;99.90;;;-144.05;83.87;56931.66;5021265;28;20030;-80
2023/05/13 06:07:49;;;;;;;21.35;16.60;;;9.80;99.90;;;-144.05;83.48;56921.06;5020284;28;20083;-80
2023/05/13 06:10:15;;;;;;;21.38;17.30;;;9.90;99.90;;;-144.05;83.62;56931.66;5020431;28;20037;-80
2023/05/13 06:12:40;;;;;;;23.67;18.17;;;10.00;99.90;;;-144.05;83.02;56935.91;5020471;28;20536;-79
2023/05/13 06:15:10;;;;;;;20.02;17.00;;;10.30;99.90;;;-144.05;82.89;56942.28;5020737;28;20096;-80
2023/05/13 06:17:36;;;;;;;22.85;17.52;;;10.60;99.90;;;-144.05;83.16;56929.53;5027231;28;20056;-80
2023/05/13 06:20:04;;;;;;;27.13;18.70;;;10.80;99.90;;;-144.05;82.82;56908.31;5021298;28;20037;-82
2023/05/13 06:22:31;;;;;;;21.77;18.88;;;11.20;99.90;;;-144.05;82.27;56912.56;5020402;28;20467;-80
2023/05/13 06:24:56;;;;;;;22.88;17.50;;;11.90;99.90;;;-144.05;80.50;56904.06;5037264;28;20022;-83
2023/05/13 06:27:23;;;;;;;20.65;16.45;;;12.60;99.90;;;-144.05;78.39;56908.31;5039659;28;20036;-81
2023/05/13 06:29:49;;;;;;;19.40;16.02;;;13.00;99.90;;;-144.05;76.05;56914.69;5039386;28;20081;-81
2023/05/13 06:32:15;;;;;;;21.58;14.95;;;13.20;99.90;;;-144.05;75.25;56912.56;5039245;28;20061;-83
2023/05/13 06:34:45;;;;;;;16.15;13.77;;;13.30;99.90;;;-144.05;74.36;56912.56;5038613;28;20082;-80
2023/05/13 06:37:15;;;;;;;15.95;13.40;;;13.30;99.90;;;-144.05;74.23;56931.66;5037095;28;20030;-81
2023/05/13 06:39:41;;;;;;;17.15;13.32;;;13.30;99.90;;;-144.05;74.52;56916.81;5024110;28;20030;-79
2023/05/13 06:42:07;;;;;;;15.05;12.52;;;13.20;99.90;;;-144.05;74.51;56918.94;5021725;28;20048;-78
2023/05/13 06:44:33;;;;;;;18.23;14.27;;;13.20;99.90;;;-144.05;73.99;56925.28;5020638;28;20030;-78
2023/05/13 06:46:59;;;;;;;17.77;14.73;;;13.10;99.90;;;-144.05;73.60;56931.66;5016229;28;20049;-79
2023/05/13 06:49:25;;;;;;;17.98;13.05;;;13.20;99.90;;;-144.05;73.52;56895.56;5020672;28;20571;-81
2023/05/13 06:51:51;;;;;;;18.23;14.88;;;13.20;99.90;;;-144.05;73.48;56918.94;5003135;28;20038;-78
2023/05/13 06:54:17;;;;;;;19.23;15.07;;;13.50;99.90;;;-144.05;72.30;56938.03;5002123;28;20026;-77
2023/05/13 06:56:42;;;;;;;19.58;14.27;;;13.80;99.90;;;-144.05;70.56;56918.94;5000705;28;20034;-78
2023/05/13 06:59:09;;;;;;;19.83;14.45;;;14.50;99.90;;;-144.05;65.85;56901.94;5016969;28;20038;-81
2023/05/13 07:01:34;;;;;;;18.48;13.05;;;15.30;99.90;;;-144.05;63.52;56925.28;4998992;28;20500;-77
2023/05/13 07:04:00;;;;;;;14.50;11.43;;;15.90;99.90;;;-144.05;61.67;56940.16;5016971;28;20056;-78
2023/05/13 07:06:26;;;;;;;15.02;11.20;;;16.60;99.90;;;-144.05;57.58;56940.16;4999659;28;20080;-81
2023/05/13 07:08:52;;;;;;;13.73;10.15;;;17.10;99.90;;;-144.05;56.13;56940.16;5017789;28;20029;-78
2023/05/13 07:11:18;;;;;;;12.38;10.55;;;17.50;99.90;;;-144.05;54.37;56950.78;5016475;28;20061;-79
2023/05/13 07:13:44;;;;;;;14.63;10.57;;;17.70;99.90;;;-144.05;54.20;56955.03;5015254;28;20030;-79
2023/05/13 07:16:10;;;;;;;14.40;11.27;;;18.00;99.90;;;-144.05;53.95;56940.16;5016384;28;20034;-77
2023/05/13 07:18:36;;;;;;;16.00;10.77;;;17.90;99.90;;;-144.05;53.80;56963.53;5017509;28;20095;-80
2023/05/13 07:21:01;;;;;;;14.77;11.10;;;18.20;99.90;;;-144.05;52.17;56963.53;5018106;28;20034;-80
2023/05/13 07:23:27;;;;;;;18.17;11.27;;;18.30;99.90;;;-144.05;51.61;56969.91;5000144;28;20036;-78
2023/05/13 07:25:53;;;;;;;11.70;10.50;;;18.40;99.90;;;-144.05;50.73;56938.03;5014658;28;20034;-78
2023/05/13 07:28:22;;;;;;;12.38;9.73;;;18.40;99.90;;;-144.05;50.65;56972.03;5018738;28;20038;-79
2023/05/13 07:30:48;;;;;;;14.25;10.48;;;18.60;99.90;;;-144.05;48.97;56963.53;5020079;28;20489;-79
2023/05/13 07:33:14;;;;;;;11.18;9.50;;;18.70;99.90;;;-144.05;48.13;56980.53;5020308;28;20446;-79
2023/05/13 07:35:40;;;;;;;11.73;9.00;;;18.80;99.90;;;-144.05;47.60;56972.03;5002533;28;20033;-79
2023/05/13 07:38:09;;;;;;;14.05;8.98;;;18.90;99.90;;;-144.05;46.86;56963.53;5003660;28;20026;-81
2023/05/13 07:40:36;;;;;;;9.40;7.65;;;19.30;99.90;;;-144.05;46.24;56976.28;5002297;28;20029;-78
2023/05/13 07:43:02;;;;;;;13.30;8.27;;;19.70;99.90;;;-144.05;42.84;56974.16;4999932;28;20036;-78
2023/05/13 07:45:28;;;;;;;16.05;8.90;;;19.80;99.90;;;-144.05;42.96;56982.66;5018740;28;20081;-79
2023/05/13 07:47:55;;;;;;;10.32;7.80;;;20.00;99.90;;;-144.05;43.38;56967.78;5019427;28;20029;-79
2023/05/13 07:50:20;;;;;;;8.90;7.78;;;20.10;99.90;;;-144.05;42.94;56989.00;5015900;28;20342;-80
2023/05/13 07:52:50;;;;;;;8.98;7.00;;;20.40;99.90;;;-144.05;42.89;56993.25;5000836;28;20513;-79
2023/05/13 07:55:17;;;;;;;10.90;7.18;;;20.60;99.90;;;-144.05;40.38;56999.63;5018235;28;20439;-79
2023/05/13 07:57:43;;;;;;;13.57;7.20;;;20.70;99.90;;;-144.05;40.27;56980.53;5019342;28;20037;-80
2023/05/13 08:00:10;;;;;;;8.65;6.32;;;20.70;99.90;;;-144.05;39.52;56997.50;5018735;28;20022;-80
2023/05/13 08:02:42;;;;;;;10.45;6.05;;;20.70;99.90;;;-144.05;39.87;56989.00;5019672;28;20069;-79
2023/05/13 08:05:09;;;;;;;7.47;6.13;;;20.90;99.90;;;-144.05;38.90;57023.00;5000221;28;20032;-79
2023/05/13 08:07:36;;;;;;;8.77;6.15;;;21.30;99.90;;;-144.05;37.79;57014.50;5018706;28;20104;-79
2023/05/13 08:10:02;;;;;;;7.10;5.88;;;21.40;99.90;;;-144.05;38.20;57006.00;5019452;28;20049;-79
2023/05/13 08:12:28;;;;;;;10.48;6.55;;;21.30;99.90;;;-144.05;36.46;56989.00;5019478;28;20057;-79
2023/05/13 08:14:54;;;;;;;9.60;6.13;;;21.30;99.90;;;-144.05;37.20;57025.13;5000645;28;20092;-79
2023/05/13 08:17:20;;;;;;;7.32;5.60;;;21.00;99.90;;;-144.05;37.21;57008.13;5002064;28;20426;-78
2023/05/13 08:19:45;;;;;;;7.88;6.13;;;20.70;99.90;;;-144.05;37.77;57001.75;5020153;28;20105;-80
2023/05/13 08:22:11;;;;;;;8.38;5.40;;;20.70;99.90;;;-144.05;37.45;56999.63;5019674;28;20040;-82
2023/05/13 08:24:39;;;;;;;8.95;5.53;;;21.10;99.90;;;-144.05;36.93;57012.38;5018218;28;20366;-80
2023/05/13 08:27:05;;;;;;;8.32;5.82;;;21.50;99.90;;;-144.05;35.92;57010.25;5017986;28;20022;-79
2023/05/13 08:29:31;;;;;;;10.43;5.00;;;22.10;99.90;;;-144.05;35.39;57033.63;5019624;28;20109;-79
2023/05/13 08:31:57;;;;;;;5.93;4.70;;;22.20;99.90;;;-144.05;35.27;57033.63;5000352;28;20026;-74
2023/05/13 08:34:23;;;;;;;6.47;5.47;;;22.40;99.90;;;-144.05;34.81;57014.50;5011576;28;20037;-76
2023/05/13 08:36:49;;;;;;;7.13;5.10;;;22.30;99.90;;;-144.05;35.22;57033.63;5012317;28;20038;-80
2023/05/13 08:39:15;;;;;;;7.25;4.70;;;22.30;99.90;;;-144.05;35.37;57031.50;4999929;28;20068;-80
2023/05/13 08:41:43;;;;;;;13.13;5.30;;;22.20;99.90;;;-144.05;35.33;57061.22;5017187;28;20486;-82
2023/05/13 08:44:14;;;;;;;6.47;4.32;;;22.50;99.90;;;-144.05;34.72;57044.25;5018292;28;20129;-81
2023/05/13 08:47:03;;;;;;;8.02;5.10;;;22.50;99.90;;;-144.05;34.20;57050.63;5024101;28;20091;-80
2023/05/13 08:49:29;;;;;;;9.48;4.55;;;22.50;98.70;;;-144.05;34.21;57029.38;5030245;28;20022;-81
2023/05/13 08:51:55;;;;;;;7.65;4.70;;;22.70;97.70;;;-144.05;33.88;57044.25;5020648;28;20040;-81
2023/05/13 08:54:24;;;;;;;9.13;4.68;;;22.70;97.30;;;-144.05;33.72;57061.22;5020298;28;20034;-80
2023/05/13 08:56:50;;;;;;;6.43;4.18;;;23.00;96.20;;;-144.05;33.30;57071.84;5027981;28;20354;-81
2023/05/13 08:59:17;;;;;;;7.22;4.60;;;23.30;96.20;;;-144.05;33.04;57082.47;5022526;28;20057;-81
2023/05/13 09:01:44;;;;;;;5.72;4.28;;;23.40;95.20;;;-144.05;31.88;57071.84;5021760;28;20041;-81
2023/05/13 09:04:10;;;;;;;7.00;4.13;;;23.50;92.70;;;-144.05;31.96;57073.97;5003189;28;20026;-81
2023/05/13 09:06:36;;;;;;;7.47;3.88;;;23.40;92.60;;;-144.05;32.00;57082.47;5021268;28;20034;-81
2023/05/13 09:09:03;;;;;;;7.72;3.80;;;23.80;91.40;;;-144.05;31.58;57095.22;5019934;28;20026;-81
2023/05/13 09:11:29;;;;;;;6.50;4.20;;;23.70;91.30;;;-144.05;30.89;57103.72;5002737;28;20177;-81
2023/05/13 09:13:58;;;;;;;6.38;3.42;;;24.00;87.00;;;-144.05;31.43;57095.22;5020124;28;20040;-80
2023/05/13 09:16:27;;;;;;;6.68;4.07;;;24.10;89.40;;;-144.05;30.64;57097.34;5019899;28;20030;-81
2023/05/13 09:19:06;;;;;;;7.68;4.00;;;23.90;83.50;;;-144.05;30.76;57088.84;5000991;28;20026;-81
2023/05/13 09:21:36;;;;;;;8.15;4.03;;;23.90;83.60;;;-144.05;30.85;57090.97;5001552;28;20486;-82
2023/05/13 09:24:20;;;;;;;7.18;4.28;;;24.20;84.60;;;-144.05;31.45;57071.84;5003841;28;20454;-82
2023/05/13 09:26:49;;;;;;;5.90;3.95;;;24.30;84.50;;;-144.05;30.92;57082.47;5022002;28;20374;-80
2023/05/13 09:29:29;;;;;;;6.40;4.05;;;24.30;82.60;;;-144.05;31.30;57078.22;5004972;28;20026;-81
2023/05/13 09:32:00;;;;;;;5.22;4.00;;;24.20;83.30;;;-144.05;30.85;57063.34;5003370;28;20101;-81
2023/05/13 09:34:32;;;;;;;7.60;3.95;;;23.90;81.40;;;-144.05;31.80;57090.97;5005343;28;20121;-81
2023/05/13 09:37:07;;;;;;;7.53;3.72;;;23.90;85.90;;;-144.05;31.22;57107.97;5004769;28;20030;-80
2023/05/13 09:39:40;;;;;;;6.07;3.70;;;24.20;85.30;;;-144.05;30.71;57114.34;5021410;28;20492;-80
2023/05/13 09:42:16;;;;;;;6.32;3.80;;;24.50;82.70;;;-144.05;30.13;57105.84;5021438;28;20124;-81
2023/05/13 09:44:44;;;;;;;6.32;4.22;;;24.50;80.30;;;-144.05;30.73;57086.72;5021164;28;20140;-80
2023/05/13 09:47:14;;;;;;;8.60;4.07;;;24.40;80.60;;;-144.05;30.23;57107.97;5020856;28;20477;-81
2023/05/13 09:49:44;;;;;;;7.28;4.25;;;24.50;79.80;;;-144.05;30.59;57099.47;5020714;28;20045;-81
2023/05/13 09:52:10;;;;;;;4.88;3.67;;;24.40;80.90;;;-144.05;30.47;57095.22;5002606;28;20505;-80
2023/05/13 09:54:37;;;;;;;6.85;4.00;;;24.60;79.60;;;-144.05;30.66;57101.59;5020526;28;20375;-79
2023/05/13 09:57:04;;;;;;;7.70;5.13;;;24.70;80.70;;;-144.05;30.05;57118.59;5019816;28;20489;-80
2023/05/13 09:59:34;;;;;;;11.13;4.55;;;24.70;76.80;;;-144.05;30.70;57099.47;5019102;28;20113;-81
2023/05/13 10:02:06;;;;;;;5.00;4.30;;;24.80;79.50;;;-144.05;30.42;57103.72;5027899;28;20037;-81